<?xml version="1.0" encoding="UTF-8" standalone="no" ?>
<gpx xmlns="http://www.topografix.com/GPX/1/1" xmlns:xsi="http://www.w3.org/2001/XMLSchema-instance" xsi:schemaLocation="http://www.topografix.com/GPX/1/1 http://www.topografix.com/GPX/1/1/gpx.xsd" version="1.1" creator="VisuGPX - https://www.visugpx.com">
  <metadata>
    <name>Les rochers de Baude</name>
    <desc><![CDATA[Balade au départ de Robion vers les rochers de Baude en passant par la source du Boulon.]]></desc>
  </metadata>
  <trk>
    <name><![CDATA[--Robion-- OR-5783732:Robion et les rochers de Baude]]></name>
    <trkseg>
      <trkpt lat="43.8451" lon="5.11223">
        <ele>142</ele>
        <time>2016-03-02T16:46:40Z</time>
      </trkpt>
      <trkpt lat="43.84418" lon="5.1123">
        <ele>143</ele>
        <time>2016-03-02T16:48:40Z</time>
      </trkpt>
      <trkpt lat="43.84381" lon="5.11281">
        <ele>149</ele>
        <time>2016-03-02T16:50:40Z</time>
      </trkpt>
      <trkpt lat="43.84368" lon="5.11305">
        <ele>152</ele>
        <time>2016-03-02T16:52:40Z</time>
      </trkpt>
      <trkpt lat="43.84366" lon="5.11338">
        <ele>157</ele>
        <time>2016-03-02T16:54:40Z</time>
      </trkpt>
      <trkpt lat="43.84369" lon="5.11364">
        <ele>161</ele>
        <time>2016-03-02T16:56:40Z</time>
      </trkpt>
      <trkpt lat="43.84352" lon="5.11352">
        <ele>160</ele>
        <time>2016-03-02T16:58:40Z</time>
      </trkpt>
      <trkpt lat="43.84332" lon="5.11339">
        <ele>159</ele>
        <time>2016-03-02T17:00:40Z</time>
      </trkpt>
      <trkpt lat="43.84307" lon="5.11321">
        <ele>162</ele>
        <time>2016-03-02T17:02:40Z</time>
      </trkpt>
      <trkpt lat="43.84283" lon="5.11302">
        <ele>165</ele>
        <time>2016-03-02T17:04:40Z</time>
      </trkpt>
      <trkpt lat="43.8425" lon="5.11279">
        <ele>166</ele>
        <time>2016-03-02T17:06:40Z</time>
      </trkpt>
      <trkpt lat="43.84222" lon="5.11261">
        <ele>172</ele>
        <time>2016-03-02T17:08:40Z</time>
      </trkpt>
      <trkpt lat="43.84206" lon="5.11252">
        <ele>176</ele>
        <time>2016-03-02T17:10:40Z</time>
      </trkpt>
      <trkpt lat="43.84206" lon="5.11203">
        <ele>173</ele>
        <time>2016-03-02T17:12:40Z</time>
      </trkpt>
      <trkpt lat="43.84195" lon="5.11153">
        <ele>172</ele>
        <time>2016-03-02T17:14:40Z</time>
      </trkpt>
      <trkpt lat="43.84168" lon="5.11108">
        <ele>171</ele>
        <time>2016-03-02T17:16:40Z</time>
      </trkpt>
      <trkpt lat="43.84123" lon="5.11087">
        <ele>172</ele>
        <time>2016-03-02T17:18:40Z</time>
      </trkpt>
      <trkpt lat="43.84067" lon="5.11054">
        <ele>170</ele>
        <time>2016-03-02T17:20:40Z</time>
      </trkpt>
      <trkpt lat="43.84039" lon="5.11044">
        <ele>169</ele>
        <time>2016-03-02T17:22:40Z</time>
      </trkpt>
      <trkpt lat="43.83983" lon="5.11076">
        <ele>180</ele>
        <time>2016-03-02T17:24:40Z</time>
      </trkpt>
      <trkpt lat="43.8396" lon="5.11031">
        <ele>171</ele>
        <time>2016-03-02T17:26:40Z</time>
      </trkpt>
      <trkpt lat="43.83912" lon="5.10992">
        <ele>159</ele>
        <time>2016-03-02T17:28:40Z</time>
      </trkpt>
      <trkpt lat="43.83895" lon="5.11018">
        <ele>168</ele>
        <time>2016-03-02T17:30:40Z</time>
      </trkpt>
      <trkpt lat="43.83863" lon="5.10992">
        <ele>160</ele>
        <time>2016-03-02T17:32:40Z</time>
      </trkpt>
      <trkpt lat="43.83829" lon="5.11003">
        <ele>165</ele>
        <time>2016-03-02T17:34:40Z</time>
      </trkpt>
      <trkpt lat="43.83798" lon="5.11033">
        <ele>179</ele>
        <time>2016-03-02T17:36:40Z</time>
      </trkpt>
      <trkpt lat="43.83796" lon="5.11085">
        <ele>196</ele>
        <time>2016-03-02T17:38:40Z</time>
      </trkpt>
      <trkpt lat="43.83782" lon="5.11125">
        <ele>211</ele>
        <time>2016-03-02T17:40:40Z</time>
      </trkpt>
      <trkpt lat="43.8375" lon="5.11108">
        <ele>206</ele>
        <time>2016-03-02T17:42:40Z</time>
      </trkpt>
      <trkpt lat="43.83726" lon="5.11089">
        <ele>215</ele>
        <time>2016-03-02T17:44:40Z</time>
      </trkpt>
      <trkpt lat="43.83705" lon="5.11059">
        <ele>217</ele>
        <time>2016-03-02T17:46:40Z</time>
      </trkpt>
      <trkpt lat="43.83695" lon="5.11029">
        <ele>212</ele>
        <time>2016-03-02T17:48:40Z</time>
      </trkpt>
      <trkpt lat="43.83661" lon="5.11022">
        <ele>224</ele>
        <time>2016-03-02T17:50:40Z</time>
      </trkpt>
      <trkpt lat="43.83644" lon="5.11016">
        <ele>222</ele>
        <time>2016-03-02T17:52:40Z</time>
      </trkpt>
      <trkpt lat="43.83624" lon="5.10997">
        <ele>216</ele>
        <time>2016-03-02T17:54:40Z</time>
      </trkpt>
      <trkpt lat="43.83596" lon="5.11001">
        <ele>219</ele>
        <time>2016-03-02T17:56:40Z</time>
      </trkpt>
      <trkpt lat="43.83569" lon="5.11018">
        <ele>226</ele>
        <time>2016-03-02T17:58:40Z</time>
      </trkpt>
      <trkpt lat="43.83558" lon="5.11063">
        <ele>241</ele>
        <time>2016-03-02T18:00:40Z</time>
      </trkpt>
      <trkpt lat="43.8353" lon="5.11089">
        <ele>247</ele>
        <time>2016-03-02T18:02:40Z</time>
      </trkpt>
      <trkpt lat="43.83508" lon="5.11085">
        <ele>241</ele>
        <time>2016-03-02T18:04:40Z</time>
      </trkpt>
      <trkpt lat="43.83483" lon="5.11059">
        <ele>250</ele>
        <time>2016-03-02T18:06:40Z</time>
      </trkpt>
      <trkpt lat="43.83471" lon="5.11024">
        <ele>249</ele>
        <time>2016-03-02T18:08:40Z</time>
      </trkpt>
      <trkpt lat="43.83451" lon="5.10997">
        <ele>256</ele>
        <time>2016-03-02T18:10:40Z</time>
      </trkpt>
      <trkpt lat="43.8344" lon="5.10958">
        <ele>247</ele>
        <time>2016-03-02T18:12:40Z</time>
      </trkpt>
      <trkpt lat="43.83429" lon="5.10928">
        <ele>240</ele>
        <time>2016-03-02T18:14:40Z</time>
      </trkpt>
      <trkpt lat="43.83401" lon="5.10921">
        <ele>244</ele>
        <time>2016-03-02T18:16:40Z</time>
      </trkpt>
      <trkpt lat="43.83386" lon="5.10951">
        <ele>262</ele>
        <time>2016-03-02T18:18:40Z</time>
      </trkpt>
      <trkpt lat="43.83332" lon="5.10962">
        <ele>275</ele>
        <time>2016-03-02T18:20:40Z</time>
      </trkpt>
      <trkpt lat="43.83301" lon="5.10984">
        <ele>296</ele>
        <time>2016-03-02T18:22:40Z</time>
      </trkpt>
      <trkpt lat="43.83282" lon="5.10986">
        <ele>300</ele>
        <time>2016-03-02T18:24:40Z</time>
      </trkpt>
      <trkpt lat="43.83265" lon="5.10975">
        <ele>299</ele>
        <time>2016-03-02T18:26:40Z</time>
      </trkpt>
      <trkpt lat="43.83278" lon="5.10943">
        <ele>283</ele>
        <time>2016-03-02T18:28:40Z</time>
      </trkpt>
      <trkpt lat="43.83268" lon="5.10894">
        <ele>269</ele>
        <time>2016-03-02T18:30:40Z</time>
      </trkpt>
      <trkpt lat="43.83242" lon="5.10859">
        <ele>270</ele>
        <time>2016-03-02T18:32:40Z</time>
      </trkpt>
      <trkpt lat="43.83242" lon="5.10829">
        <ele>259</ele>
        <time>2016-03-02T18:34:40Z</time>
      </trkpt>
      <trkpt lat="43.8323" lon="5.10801">
        <ele>260</ele>
        <time>2016-03-02T18:36:40Z</time>
      </trkpt>
      <trkpt lat="43.83236" lon="5.10776">
        <ele>250</ele>
        <time>2016-03-02T18:38:40Z</time>
      </trkpt>
      <trkpt lat="43.83213" lon="5.10758">
        <ele>258</ele>
        <time>2016-03-02T18:40:40Z</time>
      </trkpt>
      <trkpt lat="43.83192" lon="5.10739">
        <ele>263</ele>
        <time>2016-03-02T18:42:40Z</time>
      </trkpt>
      <trkpt lat="43.83178" lon="5.107">
        <ele>255</ele>
        <time>2016-03-02T18:44:40Z</time>
      </trkpt>
      <trkpt lat="43.83151" lon="5.1069">
        <ele>261</ele>
        <time>2016-03-02T18:46:40Z</time>
      </trkpt>
      <trkpt lat="43.83117" lon="5.10681">
        <ele>271</ele>
        <time>2016-03-02T18:48:40Z</time>
      </trkpt>
      <trkpt lat="43.83093" lon="5.10681">
        <ele>280</ele>
        <time>2016-03-02T18:50:40Z</time>
      </trkpt>
      <trkpt lat="43.83073" lon="5.10692">
        <ele>293</ele>
        <time>2016-03-02T18:52:40Z</time>
      </trkpt>
      <trkpt lat="43.83067" lon="5.10728">
        <ele>304</ele>
        <time>2016-03-02T18:54:40Z</time>
      </trkpt>
      <trkpt lat="43.83048" lon="5.10728">
        <ele>313</ele>
        <time>2016-03-02T18:56:40Z</time>
      </trkpt>
      <trkpt lat="43.83048" lon="5.10776">
        <ele>326</ele>
        <time>2016-03-02T18:58:40Z</time>
      </trkpt>
      <trkpt lat="43.83031" lon="5.10773">
        <ele>331</ele>
        <time>2016-03-02T19:00:40Z</time>
      </trkpt>
      <trkpt lat="43.83045" lon="5.10814">
        <ele>340</ele>
        <time>2016-03-02T19:02:40Z</time>
      </trkpt>
      <trkpt lat="43.83024" lon="5.10821">
        <ele>346</ele>
        <time>2016-03-02T19:04:40Z</time>
      </trkpt>
      <trkpt lat="43.82999" lon="5.10799">
        <ele>345</ele>
        <time>2016-03-02T19:06:40Z</time>
      </trkpt>
      <trkpt lat="43.82976" lon="5.10776">
        <ele>340</ele>
        <time>2016-03-02T19:08:40Z</time>
      </trkpt>
      <trkpt lat="43.82951" lon="5.10776">
        <ele>339</ele>
        <time>2016-03-02T19:10:40Z</time>
      </trkpt>
      <trkpt lat="43.82929" lon="5.10778">
        <ele>338</ele>
        <time>2016-03-02T19:12:40Z</time>
      </trkpt>
      <trkpt lat="43.82901" lon="5.10793">
        <ele>335</ele>
        <time>2016-03-02T19:14:40Z</time>
      </trkpt>
      <trkpt lat="43.82901" lon="5.10831">
        <ele>336</ele>
        <time>2016-03-02T19:16:40Z</time>
      </trkpt>
      <trkpt lat="43.8288" lon="5.10836">
        <ele>335</ele>
        <time>2016-03-02T19:18:40Z</time>
      </trkpt>
      <trkpt lat="43.82863" lon="5.10855">
        <ele>336</ele>
        <time>2016-03-02T19:20:40Z</time>
      </trkpt>
      <trkpt lat="43.82843" lon="5.1087">
        <ele>337</ele>
        <time>2016-03-02T19:22:40Z</time>
      </trkpt>
      <trkpt lat="43.82843" lon="5.10906">
        <ele>342</ele>
        <time>2016-03-02T19:24:40Z</time>
      </trkpt>
      <trkpt lat="43.82869" lon="5.10932">
        <ele>350</ele>
        <time>2016-03-02T19:26:40Z</time>
      </trkpt>
      <trkpt lat="43.8288" lon="5.10964">
        <ele>359</ele>
        <time>2016-03-02T19:28:40Z</time>
      </trkpt>
      <trkpt lat="43.82887" lon="5.10997">
        <ele>368</ele>
        <time>2016-03-02T19:30:40Z</time>
      </trkpt>
      <trkpt lat="43.8288" lon="5.11039">
        <ele>377</ele>
        <time>2016-03-02T19:32:40Z</time>
      </trkpt>
      <trkpt lat="43.82883" lon="5.11097">
        <ele>391</ele>
        <time>2016-03-02T19:34:40Z</time>
      </trkpt>
      <trkpt lat="43.82884" lon="5.11147">
        <ele>401</ele>
        <time>2016-03-02T19:36:40Z</time>
      </trkpt>
      <trkpt lat="43.82881" lon="5.11196">
        <ele>409</ele>
        <time>2016-03-02T19:38:40Z</time>
      </trkpt>
      <trkpt lat="43.82875" lon="5.11222">
        <ele>413</ele>
        <time>2016-03-02T19:40:40Z</time>
      </trkpt>
      <trkpt lat="43.8286" lon="5.11252">
        <ele>419</ele>
        <time>2016-03-02T19:42:40Z</time>
      </trkpt>
      <trkpt lat="43.82818" lon="5.11273">
        <ele>424</ele>
        <time>2016-03-02T19:44:40Z</time>
      </trkpt>
      <trkpt lat="43.82784" lon="5.11301">
        <ele>427</ele>
        <time>2016-03-02T19:46:40Z</time>
      </trkpt>
      <trkpt lat="43.82744" lon="5.11338">
        <ele>435</ele>
        <time>2016-03-02T19:48:40Z</time>
      </trkpt>
      <trkpt lat="43.8272" lon="5.11353">
        <ele>436</ele>
        <time>2016-03-02T19:50:40Z</time>
      </trkpt>
      <trkpt lat="43.82682" lon="5.11381">
        <ele>441</ele>
        <time>2016-03-02T19:52:40Z</time>
      </trkpt>
      <trkpt lat="43.82643" lon="5.11409">
        <ele>448</ele>
        <time>2016-03-02T19:54:40Z</time>
      </trkpt>
      <trkpt lat="43.826" lon="5.11439">
        <ele>454</ele>
        <time>2016-03-02T19:56:40Z</time>
      </trkpt>
      <trkpt lat="43.82569" lon="5.11473">
        <ele>458</ele>
        <time>2016-03-02T19:58:40Z</time>
      </trkpt>
      <trkpt lat="43.82536" lon="5.11544">
        <ele>462</ele>
        <time>2016-03-02T20:00:40Z</time>
      </trkpt>
      <trkpt lat="43.82524" lon="5.11615">
        <ele>469</ele>
        <time>2016-03-02T20:02:40Z</time>
      </trkpt>
      <trkpt lat="43.82522" lon="5.11657">
        <ele>473</ele>
        <time>2016-03-02T20:04:40Z</time>
      </trkpt>
      <trkpt lat="43.82497" lon="5.11713">
        <ele>478</ele>
        <time>2016-03-02T20:06:40Z</time>
      </trkpt>
      <trkpt lat="43.82483" lon="5.11754">
        <ele>478</ele>
        <time>2016-03-02T20:08:40Z</time>
      </trkpt>
      <trkpt lat="43.82477" lon="5.11793">
        <ele>480</ele>
        <time>2016-03-02T20:10:40Z</time>
      </trkpt>
      <trkpt lat="43.82508" lon="5.11851">
        <ele>490</ele>
        <time>2016-03-02T20:12:40Z</time>
      </trkpt>
      <trkpt lat="43.82517" lon="5.11893">
        <ele>492</ele>
        <time>2016-03-02T20:14:40Z</time>
      </trkpt>
      <trkpt lat="43.8253" lon="5.11964">
        <ele>491</ele>
        <time>2016-03-02T20:16:40Z</time>
      </trkpt>
      <trkpt lat="43.82547" lon="5.12003">
        <ele>489</ele>
        <time>2016-03-02T20:18:40Z</time>
      </trkpt>
      <trkpt lat="43.82572" lon="5.12057">
        <ele>488</ele>
        <time>2016-03-02T20:20:40Z</time>
      </trkpt>
      <trkpt lat="43.82593" lon="5.12089">
        <ele>489</ele>
        <time>2016-03-02T20:22:40Z</time>
      </trkpt>
      <trkpt lat="43.82612" lon="5.12142">
        <ele>488</ele>
        <time>2016-03-02T20:24:40Z</time>
      </trkpt>
      <trkpt lat="43.82638" lon="5.12175">
        <ele>490</ele>
        <time>2016-03-02T20:26:40Z</time>
      </trkpt>
      <trkpt lat="43.82699" lon="5.12187">
        <ele>496</ele>
        <time>2016-03-02T20:28:40Z</time>
      </trkpt>
      <trkpt lat="43.82688" lon="5.12224">
        <ele>496</ele>
        <time>2016-03-02T20:30:40Z</time>
      </trkpt>
      <trkpt lat="43.82669" lon="5.12252">
        <ele>496</ele>
        <time>2016-03-02T20:32:40Z</time>
      </trkpt>
      <trkpt lat="43.82651" lon="5.12278">
        <ele>490</ele>
        <time>2016-03-02T20:34:40Z</time>
      </trkpt>
      <trkpt lat="43.827" lon="5.1231">
        <ele>497</ele>
        <time>2016-03-02T20:36:40Z</time>
      </trkpt>
      <trkpt lat="43.82717" lon="5.12351">
        <ele>498</ele>
        <time>2016-03-02T20:38:40Z</time>
      </trkpt>
      <trkpt lat="43.8274" lon="5.12385">
        <ele>500</ele>
        <time>2016-03-02T20:40:40Z</time>
      </trkpt>
      <trkpt lat="43.82733" lon="5.12419">
        <ele>498</ele>
        <time>2016-03-02T20:42:40Z</time>
      </trkpt>
      <trkpt lat="43.8275" lon="5.1246">
        <ele>498</ele>
        <time>2016-03-02T20:44:40Z</time>
      </trkpt>
      <trkpt lat="43.82756" lon="5.12505">
        <ele>495</ele>
        <time>2016-03-02T20:46:40Z</time>
      </trkpt>
      <trkpt lat="43.82776" lon="5.12544">
        <ele>495</ele>
        <time>2016-03-02T20:48:40Z</time>
      </trkpt>
      <trkpt lat="43.82788" lon="5.12589">
        <ele>497</ele>
        <time>2016-03-02T20:50:40Z</time>
      </trkpt>
      <trkpt lat="43.82821" lon="5.12614">
        <ele>501</ele>
        <time>2016-03-02T20:52:40Z</time>
      </trkpt>
      <trkpt lat="43.82857" lon="5.12604">
        <ele>503</ele>
        <time>2016-03-02T20:54:40Z</time>
      </trkpt>
      <trkpt lat="43.82891" lon="5.12574">
        <ele>504</ele>
        <time>2016-03-02T20:56:40Z</time>
      </trkpt>
      <trkpt lat="43.82931" lon="5.12554">
        <ele>503</ele>
        <time>2016-03-02T20:58:40Z</time>
      </trkpt>
      <trkpt lat="43.82957" lon="5.12529">
        <ele>503</ele>
        <time>2016-03-02T21:00:40Z</time>
      </trkpt>
      <trkpt lat="43.83008" lon="5.12477">
        <ele>503</ele>
        <time>2016-03-02T21:02:40Z</time>
      </trkpt>
      <trkpt lat="43.83067" lon="5.12432">
        <ele>498</ele>
        <time>2016-03-02T21:04:40Z</time>
      </trkpt>
      <trkpt lat="43.83112" lon="5.12391">
        <ele>493</ele>
        <time>2016-03-02T21:06:40Z</time>
      </trkpt>
      <trkpt lat="43.83141" lon="5.12355">
        <ele>490</ele>
        <time>2016-03-02T21:08:40Z</time>
      </trkpt>
      <trkpt lat="43.83188" lon="5.12305">
        <ele>483</ele>
        <time>2016-03-02T21:10:40Z</time>
      </trkpt>
      <trkpt lat="43.83225" lon="5.12284">
        <ele>478</ele>
        <time>2016-03-02T21:12:40Z</time>
      </trkpt>
      <trkpt lat="43.83256" lon="5.12237">
        <ele>475</ele>
        <time>2016-03-02T21:14:40Z</time>
      </trkpt>
      <trkpt lat="43.83279" lon="5.12198">
        <ele>469</ele>
        <time>2016-03-02T21:16:40Z</time>
      </trkpt>
      <trkpt lat="43.83309" lon="5.1217">
        <ele>468</ele>
        <time>2016-03-02T21:18:40Z</time>
      </trkpt>
      <trkpt lat="43.83338" lon="5.1214">
        <ele>465</ele>
        <time>2016-03-02T21:20:40Z</time>
      </trkpt>
      <trkpt lat="43.8337" lon="5.12114">
        <ele>460</ele>
        <time>2016-03-02T21:22:40Z</time>
      </trkpt>
      <trkpt lat="43.83409" lon="5.12052">
        <ele>455</ele>
        <time>2016-03-02T21:24:40Z</time>
      </trkpt>
      <trkpt lat="43.83448" lon="5.12026">
        <ele>450</ele>
        <time>2016-03-02T21:26:40Z</time>
      </trkpt>
      <trkpt lat="43.83493" lon="5.11971">
        <ele>448</ele>
        <time>2016-03-02T21:28:40Z</time>
      </trkpt>
      <trkpt lat="43.83541" lon="5.11939">
        <ele>441</ele>
        <time>2016-03-02T21:30:40Z</time>
      </trkpt>
      <trkpt lat="43.83592" lon="5.11906">
        <ele>437</ele>
        <time>2016-03-02T21:32:40Z</time>
      </trkpt>
      <trkpt lat="43.83627" lon="5.11863">
        <ele>431</ele>
        <time>2016-03-02T21:34:40Z</time>
      </trkpt>
      <trkpt lat="43.83661" lon="5.1181">
        <ele>433</ele>
        <time>2016-03-02T21:36:40Z</time>
      </trkpt>
      <trkpt lat="43.83702" lon="5.11754">
        <ele>428</ele>
        <time>2016-03-02T21:38:40Z</time>
      </trkpt>
      <trkpt lat="43.8373" lon="5.11698">
        <ele>426</ele>
        <time>2016-03-02T21:40:40Z</time>
      </trkpt>
      <trkpt lat="43.83771" lon="5.11651">
        <ele>424</ele>
        <time>2016-03-02T21:42:40Z</time>
      </trkpt>
      <trkpt lat="43.83819" lon="5.11623">
        <ele>418</ele>
        <time>2016-03-02T21:44:40Z</time>
      </trkpt>
      <trkpt lat="43.8386" lon="5.1163">
        <ele>412</ele>
        <time>2016-03-02T21:46:40Z</time>
      </trkpt>
      <trkpt lat="43.83921" lon="5.1161">
        <ele>400</ele>
        <time>2016-03-02T21:48:40Z</time>
      </trkpt>
      <trkpt lat="43.83977" lon="5.11627">
        <ele>382</ele>
        <time>2016-03-02T21:50:40Z</time>
      </trkpt>
      <trkpt lat="43.84014" lon="5.11642">
        <ele>371</ele>
        <time>2016-03-02T21:52:40Z</time>
      </trkpt>
      <trkpt lat="43.84055" lon="5.11634">
        <ele>360</ele>
        <time>2016-03-02T21:54:40Z</time>
      </trkpt>
      <trkpt lat="43.84104" lon="5.11621">
        <ele>344</ele>
        <time>2016-03-02T21:56:40Z</time>
      </trkpt>
      <trkpt lat="43.84106" lon="5.117">
        <ele>343</ele>
        <time>2016-03-02T21:58:40Z</time>
      </trkpt>
      <trkpt lat="43.84113" lon="5.11728">
        <ele>338</ele>
        <time>2016-03-02T22:00:40Z</time>
      </trkpt>
      <trkpt lat="43.84133" lon="5.11705">
        <ele>333</ele>
        <time>2016-03-02T22:02:40Z</time>
      </trkpt>
      <trkpt lat="43.84146" lon="5.11733">
        <ele>327</ele>
        <time>2016-03-02T22:04:40Z</time>
      </trkpt>
      <trkpt lat="43.84175" lon="5.11709">
        <ele>318</ele>
        <time>2016-03-02T22:06:40Z</time>
      </trkpt>
      <trkpt lat="43.84208" lon="5.11726">
        <ele>302</ele>
        <time>2016-03-02T22:08:40Z</time>
      </trkpt>
      <trkpt lat="43.84229" lon="5.11735">
        <ele>293</ele>
        <time>2016-03-02T22:10:40Z</time>
      </trkpt>
      <trkpt lat="43.84257" lon="5.11715">
        <ele>281</ele>
        <time>2016-03-02T22:12:40Z</time>
      </trkpt>
      <trkpt lat="43.84282" lon="5.11711">
        <ele>272</ele>
        <time>2016-03-02T22:14:40Z</time>
      </trkpt>
      <trkpt lat="43.84315" lon="5.11702">
        <ele>258</ele>
        <time>2016-03-02T22:16:40Z</time>
      </trkpt>
      <trkpt lat="43.84347" lon="5.117">
        <ele>247</ele>
        <time>2016-03-02T22:18:40Z</time>
      </trkpt>
      <trkpt lat="43.84383" lon="5.11696">
        <ele>234</ele>
        <time>2016-03-02T22:20:40Z</time>
      </trkpt>
      <trkpt lat="43.84412" lon="5.11681">
        <ele>221</ele>
        <time>2016-03-02T22:22:40Z</time>
      </trkpt>
      <trkpt lat="43.8444" lon="5.11645">
        <ele>204</ele>
        <time>2016-03-02T22:24:40Z</time>
      </trkpt>
      <trkpt lat="43.84435" lon="5.11615">
        <ele>196</ele>
        <time>2016-03-02T22:26:40Z</time>
      </trkpt>
      <trkpt lat="43.8442" lon="5.11565">
        <ele>183</ele>
        <time>2016-03-02T22:28:40Z</time>
      </trkpt>
      <trkpt lat="43.84406" lon="5.11524">
        <ele>177</ele>
        <time>2016-03-02T22:30:40Z</time>
      </trkpt>
      <trkpt lat="43.84424" lon="5.11494">
        <ele>165</ele>
        <time>2016-03-02T22:32:40Z</time>
      </trkpt>
      <trkpt lat="43.84455" lon="5.11471">
        <ele>162</ele>
        <time>2016-03-02T22:34:40Z</time>
      </trkpt>
      <trkpt lat="43.84406" lon="5.11469">
        <ele>167</ele>
        <time>2016-03-02T22:36:40Z</time>
      </trkpt>
      <trkpt lat="43.8439" lon="5.11432">
        <ele>168</ele>
        <time>2016-03-02T22:38:40Z</time>
      </trkpt>
      <trkpt lat="43.84376" lon="5.11393">
        <ele>165</ele>
        <time>2016-03-02T22:40:40Z</time>
      </trkpt>
      <trkpt lat="43.84373" lon="5.11323">
        <ele>155</ele>
        <time>2016-03-02T22:42:40Z</time>
      </trkpt>
      <trkpt lat="43.84414" lon="5.11245">
        <ele>144</ele>
        <time>2016-03-02T22:44:40Z</time>
      </trkpt>
    </trkseg>
  </trk>
</gpx>